sensor_id;sensor_type;location;lat;lon;timestamp;temperature;humidity
1379;DHT22;683;48.738;9.226;2023-04-30T00:01:43;11.00;99.90
1379;DHT22;683;48.738;9.226;2023-04-30T00:04:10;10.90;99.90
1379;DHT22;683;48.738;9.226;2023-04-30T00:06:39;10.90;99.90
1379;DHT22;683;48.738;9.226;2023-04-30T00:09:06;10.90;99.90
1379;DHT22;683;48.738;9.226;2023-04-30T00:11:34;10.90;99.90
1379;DHT22;683;48.738;9.226;2023-04-30T00:14:02;10.90;99.90
1379;DHT22;683;48.738;9.226;2023-04-30T00:16:29;10.90;99.90
1379;DHT22;683;48.738;9.226;2023-04-30T00:18:57;10.90;99.90
1379;DHT22;683;48.738;9.226;2023-04-30T00:21:24;10.90;99.90
1379;DHT22;683;48.738;9.226;2023-04-30T00:23:54;10.90;99.90
1379;DHT22;683;48.738;9.226;2023-04-30T00:26:21;10.90;99.90
1379;DHT22;683;48.738;9.226;2023-04-30T00:28:49;10.90;99.90
1379;DHT22;683;48.738;9.226;2023-04-30T00:31:16;10.80;99.90
1379;DHT22;683;48.738;9.226;2023-04-30T00:33:44;10.80;99.90
1379;DHT22;683;48.738;9.226;2023-04-30T00:36:11;10.80;99.90
1379;DHT22;683;48.738;9.226;2023-04-30T00:38:39;10.80;99.90
1379;DHT22;683;48.738;9.226;2023-04-30T00:41:08;10.80;99.90
1379;DHT22;683;48.738;9.226;2023-04-30T00:43:36;10.80;99.90
1379;DHT22;683;48.738;9.226;2023-04-30T00:46:04;10.80;99.90
1379;DHT22;683;48.738;9.226;2023-04-30T00:48:31;10.70;99.90
1379;DHT22;683;48.738;9.226;2023-04-30T00:51:00;10.70;99.90
1379;DHT22;683;48.738;9.226;2023-04-30T00:53:29;10.80;99.90
1379;DHT22;683;48.738;9.226;2023-04-30T00:55:57;10.70;99.90
1379;DHT22;683;48.738;9.226;2023-04-30T00:58:26;10.70;99.90
1379;DHT22;683;48.738;9.226;2023-04-30T01:00:54;10.70;99.90
1379;DHT22;683;48.738;9.226;2023-04-30T01:03:21;10.70;99.90
1379;DHT22;683;48.738;9.226;2023-04-30T01:05:49;10.70;99.90
1379;DHT22;683;48.738;9.226;2023-04-30T01:08:19;10.70;99.90
1379;DHT22;683;48.738;9.226;2023-04-30T01:10:52;10.70;99.90
1379;DHT22;683;48.738;9.226;2023-04-30T01:13:27;10.60;99.90
1379;DHT22;683;48.738;9.226;2023-04-30T01:15:59;10.60;99.90
1379;DHT22;683;48.738;9.226;2023-04-30T01:18:32;10.60;99.90
1379;DHT22;683;48.738;9.226;2023-04-30T01:21:03;10.60;99.90
1379;DHT22;683;48.738;9.226;2023-04-30T01:23:42;10.60;99.90
1379;DHT22;683;48.738;9.226;2023-04-30T01:26:14;10.60;99.90
1379;DHT22;683;48.738;9.226;2023-04-30T01:28:45;10.50;99.90
1379;DHT22;683;48.738;9.226;2023-04-30T01:31:14;10.50;99.90
1379;DHT22;683;48.738;9.226;2023-04-30T01:33:41;10.50;99.90
1379;DHT22;683;48.738;9.226;2023-04-30T01:36:29;10.50;99.90
1379;DHT22;683;48.738;9.226;2023-04-30T01:39:26;10.40;99.90
1379;DHT22;683;48.738;9.226;2023-04-30T01:42:04;10.40;99.90
1379;DHT22;683;48.738;9.226;2023-04-30T01:44:46;10.40;99.90
1379;DHT22;683;48.738;9.226;2023-04-30T01:47:23;10.30;99.90
1379;DHT22;683;48.738;9.226;2023-04-30T01:50:00;10.30;99.90
1379;DHT22;683;48.738;9.226;2023-04-30T01:52:34;10.30;99.90
1379;DHT22;683;48.738;9.226;2023-04-30T01:55:08;10.20;99.90
1379;DHT22;683;48.738;9.226;2023-04-30T01:57:41;10.20;99.90
1379;DHT22;683;48.738;9.226;2023-04-30T02:00:11;10.20;99.90
1379;DHT22;683;48.738;9.226;2023-04-30T02:02:41;10.20;99.90
1379;DHT22;683;48.738;9.226;2023-04-30T02:05:08;10.20;99.90
1379;DHT22;683;48.738;9.226;2023-04-30T02:07:39;10.20;99.90
1379;DHT22;683;48.738;9.226;2023-04-30T02:10:08;10.20;99.90
1379;DHT22;683;48.738;9.226;2023-04-30T02:12:37;10.20;99.90
1379;DHT22;683;48.738;9.226;2023-04-30T02:15:05;10.20;99.90
1379;DHT22;683;48.738;9.226;2023-04-30T02:17:34;10.20;99.90
1379;DHT22;683;48.738;9.226;2023-04-30T02:20:02;10.20;99.90
1379;DHT22;683;48.738;9.226;2023-04-30T02:22:30;10.10;99.90
1379;DHT22;683;48.738;9.226;2023-04-30T02:24:58;10.10;99.90
1379;DHT22;683;48.738;9.226;2023-04-30T02:27:25;10.10;99.90
1379;DHT22;683;48.738;9.226;2023-04-30T02:29:53;10.10;99.90
1379;DHT22;683;48.738;9.226;2023-04-30T02:32:21;10.10;99.90
1379;DHT22;683;48.738;9.226;2023-04-30T02:34:50;10.10;99.90
1379;DHT22;683;48.738;9.226;2023-04-30T02:37:18;10.00;99.90
1379;DHT22;683;48.738;9.226;2023-04-30T02:39:45;10.00;99.90
1379;DHT22;683;48.738;9.226;2023-04-30T02:42:13;10.00;99.90
1379;DHT22;683;48.738;9.226;2023-04-30T02:44:40;10.00;99.90
1379;DHT22;683;48.738;9.226;2023-04-30T02:47:08;10.00;99.90
1379;DHT22;683;48.738;9.226;2023-04-30T02:49:36;9.90;99.90
1379;DHT22;683;48.738;9.226;2023-04-30T02:52:05;9.90;99.90
1379;DHT22;683;48.738;9.226;2023-04-30T02:54:34;9.90;99.90
1379;DHT22;683;48.738;9.226;2023-04-30T02:57:02;9.90;99.90
1379;DHT22;683;48.738;9.226;2023-04-30T02:59:30;9.90;99.90
1379;DHT22;683;48.738;9.226;2023-04-30T03:01:57;9.90;99.90
1379;DHT22;683;48.738;9.226;2023-04-30T03:04:25;9.90;99.90
1379;DHT22;683;48.738;9.226;2023-04-30T03:06:52;9.90;99.90
1379;DHT22;683;48.738;9.226;2023-04-30T03:09:21;9.90;99.90
1379;DHT22;683;48.738;9.226;2023-04-30T03:11:49;9.90;99.90
1379;DHT22;683;48.738;9.226;2023-04-30T03:14:17;9.80;99.90
1379;DHT22;683;48.738;9.226;2023-04-30T03:16:44;9.80;99.90
1379;DHT22;683;48.738;9.226;2023-04-30T03:19:11;9.80;99.90
1379;DHT22;683;48.738;9.226;2023-04-30T03:21:39;9.90;99.90
1379;DHT22;683;48.738;9.226;2023-04-30T03:24:06;9.90;99.90
1379;DHT22;683;48.738;9.226;2023-04-30T03:26:35;9.80;99.90
1379;DHT22;683;48.738;9.226;2023-04-30T03:29:03;9.80;99.90
1379;DHT22;683;48.738;9.226;2023-04-30T03:31:30;9.80;99.90
1379;DHT22;683;48.738;9.226;2023-04-30T03:33:58;9.80;99.90
1379;DHT22;683;48.738;9.226;2023-04-30T03:36:25;9.80;99.90
1379;DHT22;683;48.738;9.226;2023-04-30T03:38:53;9.80;99.90
1379;DHT22;683;48.738;9.226;2023-04-30T03:41:20;9.80;99.90
1379;DHT22;683;48.738;9.226;2023-04-30T03:43:49;9.80;99.90
1379;DHT22;683;48.738;9.226;2023-04-30T03:46:17;9.80;99.90
1379;DHT22;683;48.738;9.226;2023-04-30T03:48:44;9.80;99.90
1379;DHT22;683;48.738;9.226;2023-04-30T03:51:12;9.80;99.90
1379;DHT22;683;48.738;9.226;2023-04-30T03:53:39;9.90;99.90
1379;DHT22;683;48.738;9.226;2023-04-30T03:56:07;9.90;99.90
1379;DHT22;683;48.738;9.226;2023-04-30T03:58:35;9.90;99.90
1379;DHT22;683;48.738;9.226;2023-04-30T04:01:04;9.90;99.90
1379;DHT22;683;48.738;9.226;2023-04-30T04:03:33;9.90;99.90
1379;DHT22;683;48.738;9.226;2023-04-30T04:06:01;9.90;99.90
1379;DHT22;683;48.738;9.226;2023-04-30T04:08:30;9.80;99.90
1379;DHT22;683;48.738;9.226;2023-04-30T04:11:03;9.80;99.90
1379;DHT22;683;48.738;9.226;2023-04-30T04:13:35;9.80;99.90
1379;DHT22;683;48.738;9.226;2023-04-30T04:16:04;9.80;99.90
1379;DHT22;683;48.738;9.226;2023-04-30T04:18:33;9.80;99.90
1379;DHT22;683;48.738;9.226;2023-04-30T04:21:01;9.90;99.90
1379;DHT22;683;48.738;9.226;2023-04-30T04:23:30;9.80;99.90
1379;DHT22;683;48.738;9.226;2023-04-30T04:25:57;9.90;99.90
1379;DHT22;683;48.738;9.226;2023-04-30T04:28:26;9.90;99.90
1379;DHT22;683;48.738;9.226;2023-04-30T04:30:53;9.80;99.90
1379;DHT22;683;48.738;9.226;2023-04-30T04:33:22;9.80;99.90
1379;DHT22;683;48.738;9.226;2023-04-30T04:35:49;9.80;99.90
1379;DHT22;683;48.738;9.226;2023-04-30T04:38:18;9.90;99.90
1379;DHT22;683;48.738;9.226;2023-04-30T04:40:53;9.80;99.90
1379;DHT22;683;48.738;9.226;2023-04-30T04:43:21;9.80;99.90
1379;DHT22;683;48.738;9.226;2023-04-30T04:45:49;9.70;99.90
1379;DHT22;683;48.738;9.226;2023-04-30T04:48:17;9.70;99.90
1379;DHT22;683;48.738;9.226;2023-04-30T04:50:46;9.70;99.90
1379;DHT22;683;48.738;9.226;2023-04-30T04:53:13;9.80;99.90
1379;DHT22;683;48.738;9.226;2023-04-30T04:55:41;9.80;99.90
1379;DHT22;683;48.738;9.226;2023-04-30T04:58:08;9.80;99.90
1379;DHT22;683;48.738;9.226;2023-04-30T05:00:37;9.80;99.90
1379;DHT22;683;48.738;9.226;2023-04-30T05:03:04;9.80;99.90
1379;DHT22;683;48.738;9.226;2023-04-30T05:05:32;9.80;99.90
1379;DHT22;683;48.738;9.226;2023-04-30T05:08:01;9.80;99.90
1379;DHT22;683;48.738;9.226;2023-04-30T05:10:29;9.80;99.90
1379;DHT22;683;48.738;9.226;2023-04-30T05:12:57;9.80;99.90
1379;DHT22;683;48.738;9.226;2023-04-30T05:15:24;9.90;99.90
1379;DHT22;683;48.738;9.226;2023-04-30T05:17:52;9.90;99.90
1379;DHT22;683;48.738;9.226;2023-04-30T05:20:19;10.00;99.90
1379;DHT22;683;48.738;9.226;2023-04-30T05:22:47;10.00;99.90
1379;DHT22;683;48.738;9.226;2023-04-30T05:25:16;10.10;99.90
1379;DHT22;683;48.738;9.226;2023-04-30T05:27:43;10.10;99.90
1379;DHT22;683;48.738;9.226;2023-04-30T05:30:11;10.20;99.90
1379;DHT22;683;48.738;9.226;2023-04-30T05:32:40;10.20;99.90
1379;DHT22;683;48.738;9.226;2023-04-30T05:35:08;10.30;99.90
1379;DHT22;683;48.738;9.226;2023-04-30T05:37:36;10.30;99.90
1379;DHT22;683;48.738;9.226;2023-04-30T05:40:04;10.30;99.90
1379;DHT22;683;48.738;9.226;2023-04-30T05:42:33;10.40;99.90
1379;DHT22;683;48.738;9.226;2023-04-30T05:45:01;10.50;99.90
1379;DHT22;683;48.738;9.226;2023-04-30T05:47:30;10.60;99.90
1379;DHT22;683;48.738;9.226;2023-04-30T05:49:57;10.80;99.90
1379;DHT22;683;48.738;9.226;2023-04-30T05:52:24;10.90;99.90
1379;DHT22;683;48.738;9.226;2023-04-30T05:54:52;10.90;99.90
1379;DHT22;683;48.738;9.226;2023-04-30T05:57:20;10.90;99.90
1379;DHT22;683;48.738;9.226;2023-04-30T05:59:48;10.90;99.90
1379;DHT22;683;48.738;9.226;2023-04-30T06:02:16;10.90;99.90
1379;DHT22;683;48.738;9.226;2023-04-30T06:04:43;11.00;99.90
1379;DHT22;683;48.738;9.226;2023-04-30T06:07:11;11.10;99.90
1379;DHT22;683;48.738;9.226;2023-04-30T06:09:38;11.20;99.90
1379;DHT22;683;48.738;9.226;2023-04-30T06:12:06;11.30;99.90
1379;DHT22;683;48.738;9.226;2023-04-30T06:14:34;11.50;99.90
1379;DHT22;683;48.738;9.226;2023-04-30T06:17:03;11.60;99.90
1379;DHT22;683;48.738;9.226;2023-04-30T06:19:30;11.70;99.90
1379;DHT22;683;48.738;9.226;2023-04-30T06:21:58;11.80;99.90
1379;DHT22;683;48.738;9.226;2023-04-30T06:24:25;11.90;99.90
1379;DHT22;683;48.738;9.226;2023-04-30T06:26:53;12.00;99.90
1379;DHT22;683;48.738;9.226;2023-04-30T06:29:20;12.10;99.90
1379;DHT22;683;48.738;9.226;2023-04-30T06:31:49;12.20;99.90
1379;DHT22;683;48.738;9.226;2023-04-30T06:34:18;12.20;99.90
1379;DHT22;683;48.738;9.226;2023-04-30T06:36:46;12.40;99.90
1379;DHT22;683;48.738;9.226;2023-04-30T06:39:14;12.40;99.90
1379;DHT22;683;48.738;9.226;2023-04-30T06:41:42;12.50;99.90
1379;DHT22;683;48.738;9.226;2023-04-30T06:44:09;12.50;99.90
1379;DHT22;683;48.738;9.226;2023-04-30T06:46:38;12.50;99.90
1379;DHT22;683;48.738;9.226;2023-04-30T06:49:05;12.60;99.90
1379;DHT22;683;48.738;9.226;2023-04-30T06:51:34;12.70;99.90
1379;DHT22;683;48.738;9.226;2023-04-30T06:54:01;12.90;99.90
1379;DHT22;683;48.738;9.226;2023-04-30T06:56:29;12.90;99.90
1379;DHT22;683;48.738;9.226;2023-04-30T06:58:56;13.10;99.90
1379;DHT22;683;48.738;9.226;2023-04-30T07:01:24;13.40;99.50
1379;DHT22;683;48.738;9.226;2023-04-30T07:03:51;13.40;99.40
1379;DHT22;683;48.738;9.226;2023-04-30T07:06:19;13.50;99.40
1379;DHT22;683;48.738;9.226;2023-04-30T07:08:48;13.40;99.60
1379;DHT22;683;48.738;9.226;2023-04-30T07:11:16;13.40;99.60
1379;DHT22;683;48.738;9.226;2023-04-30T07:13:43;13.30;99.40
1379;DHT22;683;48.738;9.226;2023-04-30T07:16:11;13.50;98.90
1379;DHT22;683;48.738;9.226;2023-04-30T07:18:39;13.40;98.60
1379;DHT22;683;48.738;9.226;2023-04-30T07:21:07;13.40;98.80
1379;DHT22;683;48.738;9.226;2023-04-30T07:23:34;13.50;98.70
1379;DHT22;683;48.738;9.226;2023-04-30T07:26:03;13.60;98.90
1379;DHT22;683;48.738;9.226;2023-04-30T07:28:31;13.60;98.60
1379;DHT22;683;48.738;9.226;2023-04-30T07:30:58;13.80;97.40
1379;DHT22;683;48.738;9.226;2023-04-30T07:33:25;14.00;97.40
1379;DHT22;683;48.738;9.226;2023-04-30T07:35:53;14.10;96.30
1379;DHT22;683;48.738;9.226;2023-04-30T07:38:21;14.20;96.70
1379;DHT22;683;48.738;9.226;2023-04-30T07:40:49;14.30;96.70
1379;DHT22;683;48.738;9.226;2023-04-30T07:43:18;14.20;96.30
1379;DHT22;683;48.738;9.226;2023-04-30T07:45:45;14.10;95.80
1379;DHT22;683;48.738;9.226;2023-04-30T07:48:14;14.20;95.70
1379;DHT22;683;48.738;9.226;2023-04-30T07:50:42;14.20;95.00
1379;DHT22;683;48.738;9.226;2023-04-30T07:53:09;14.20;95.50
1379;DHT22;683;48.738;9.226;2023-04-30T07:55:37;14.30;95.10
1379;DHT22;683;48.738;9.226;2023-04-30T07:58:04;14.20;95.20
1379;DHT22;683;48.738;9.226;2023-04-30T08:00:33;14.30;95.20
1379;DHT22;683;48.738;9.226;2023-04-30T08:03:01;14.30;94.40
1379;DHT22;683;48.738;9.226;2023-04-30T08:05:28;14.40;94.40
1379;DHT22;683;48.738;9.226;2023-04-30T08:07:55;14.50;93.90
1379;DHT22;683;48.738;9.226;2023-04-30T08:10:23;14.50;94.10
1379;DHT22;683;48.738;9.226;2023-04-30T08:12:51;14.50;93.50
1379;DHT22;683;48.738;9.226;2023-04-30T08:15:19;14.40;93.50
1379;DHT22;683;48.738;9.226;2023-04-30T08:17:48;14.30;93.20
1379;DHT22;683;48.738;9.226;2023-04-30T08:20:16;14.20;92.00
1379;DHT22;683;48.738;9.226;2023-04-30T08:22:44;14.40;91.40
1379;DHT22;683;48.738;9.226;2023-04-30T08:25:11;14.70;91.10
1379;DHT22;683;48.738;9.226;2023-04-30T08:27:39;14.80;90.60
1379;DHT22;683;48.738;9.226;2023-04-30T08:30:07;15.00;90.20
1379;DHT22;683;48.738;9.226;2023-04-30T08:32:35;15.20;88.80
1379;DHT22;683;48.738;9.226;2023-04-30T08:35:05;15.40;90.20
1379;DHT22;683;48.738;9.226;2023-04-30T08:37:32;15.50;88.60
1379;DHT22;683;48.738;9.226;2023-04-30T08:40:00;15.70;88.10
1379;DHT22;683;48.738;9.226;2023-04-30T08:42:30;15.90;85.60
1379;DHT22;683;48.738;9.226;2023-04-30T08:44:59;16.10;84.20
1379;DHT22;683;48.738;9.226;2023-04-30T08:47:28;16.40;80.60
1379;DHT22;683;48.738;9.226;2023-04-30T08:49:56;16.50;80.50
1379;DHT22;683;48.738;9.226;2023-04-30T08:52:26;16.60;79.00
1379;DHT22;683;48.738;9.226;2023-04-30T08:54:56;16.40;80.20
1379;DHT22;683;48.738;9.226;2023-04-30T08:57:25;16.10;80.00
1379;DHT22;683;48.738;9.226;2023-04-30T08:59:53;15.90;78.60
1379;DHT22;683;48.738;9.226;2023-04-30T09:02:20;15.90;78.30
1379;DHT22;683;48.738;9.226;2023-04-30T09:04:48;15.80;79.90
1379;DHT22;683;48.738;9.226;2023-04-30T09:07:17;15.80;79.90
1379;DHT22;683;48.738;9.226;2023-04-30T09:09:46;15.80;79.70
1379;DHT22;683;48.738;9.226;2023-04-30T09:12:15;16.00;77.80
1379;DHT22;683;48.738;9.226;2023-04-30T09:14:57;16.20;76.00
1379;DHT22;683;48.738;9.226;2023-04-30T09:17:26;16.50;76.00
1379;DHT22;683;48.738;9.226;2023-04-30T09:19:53;16.60;74.80
1379;DHT22;683;48.738;9.226;2023-04-30T09:22:22;16.70;72.10
1379;DHT22;683;48.738;9.226;2023-04-30T09:24:51;16.70;73.00
1379;DHT22;683;48.738;9.226;2023-04-30T09:27:20;16.80;72.90
1379;DHT22;683;48.738;9.226;2023-04-30T09:29:48;16.80;72.40
1379;DHT22;683;48.738;9.226;2023-04-30T09:32:16;16.80;72.60
1379;DHT22;683;48.738;9.226;2023-04-30T09:34:43;16.90;71.80
1379;DHT22;683;48.738;9.226;2023-04-30T09:37:11;16.90;72.60
1379;DHT22;683;48.738;9.226;2023-04-30T09:39:49;16.90;73.20
1379;DHT22;683;48.738;9.226;2023-04-30T09:42:18;17.10;72.10
1379;DHT22;683;48.738;9.226;2023-04-30T09:44:46;17.20;72.70
1379;DHT22;683;48.738;9.226;2023-04-30T09:47:14;17.40;73.00
1379;DHT22;683;48.738;9.226;2023-04-30T09:49:43;17.50;69.50
1379;DHT22;683;48.738;9.226;2023-04-30T09:52:14;17.50;69.30
1379;DHT22;683;48.738;9.226;2023-04-30T09:54:43;17.50;67.40
1379;DHT22;683;48.738;9.226;2023-04-30T09:57:13;17.30;67.30
1379;DHT22;683;48.738;9.226;2023-04-30T09:59:44;17.30;68.00
1379;DHT22;683;48.738;9.226;2023-04-30T10:02:13;17.20;68.10
1379;DHT22;683;48.738;9.226;2023-04-30T10:04:42;17.10;67.90
1379;DHT22;683;48.738;9.226;2023-04-30T10:07:14;17.00;68.20
1379;DHT22;683;48.738;9.226;2023-04-30T10:09:48;17.00;70.00
1379;DHT22;683;48.738;9.226;2023-04-30T10:12:21;17.10;69.40
1379;DHT22;683;48.738;9.226;2023-04-30T10:14:53;17.40;67.30
1379;DHT22;683;48.738;9.226;2023-04-30T10:17:26;17.50;67.70
1379;DHT22;683;48.738;9.226;2023-04-30T10:19:57;17.90;68.00
1379;DHT22;683;48.738;9.226;2023-04-30T10:22:29;18.00;66.90
1379;DHT22;683;48.738;9.226;2023-04-30T10:24:56;18.10;66.70
1379;DHT22;683;48.738;9.226;2023-04-30T10:27:24;18.40;65.20
1379;DHT22;683;48.738;9.226;2023-04-30T10:29:54;18.50;65.30
1379;DHT22;683;48.738;9.226;2023-04-30T10:32:22;18.60;65.30
1379;DHT22;683;48.738;9.226;2023-04-30T10:34:54;18.60;64.10
1379;DHT22;683;48.738;9.226;2023-04-30T10:37:33;18.70;62.20
1379;DHT22;683;48.738;9.226;2023-04-30T10:40:02;18.60;62.80
1379;DHT22;683;48.738;9.226;2023-04-30T10:42:33;18.50;62.30
1379;DHT22;683;48.738;9.226;2023-04-30T10:45:03;18.50;63.40
1379;DHT22;683;48.738;9.226;2023-04-30T10:47:30;18.30;63.50
1379;DHT22;683;48.738;9.226;2023-04-30T10:50:02;18.10;64.80
1379;DHT22;683;48.738;9.226;2023-04-30T10:52:29;18.00;65.20
1379;DHT22;683;48.738;9.226;2023-04-30T10:54:57;18.00;65.70
1379;DHT22;683;48.738;9.226;2023-04-30T10:57:28;18.10;64.80
1379;DHT22;683;48.738;9.226;2023-04-30T11:03:01;17.90;65.20
1379;DHT22;683;48.738;9.226;2023-04-30T11:05:36;17.70;66.30
1379;DHT22;683;48.738;9.226;2023-04-30T11:08:04;17.70;66.20
1379;DHT22;683;48.738;9.226;2023-04-30T11:10:33;17.80;66.60
1379;DHT22;683;48.738;9.226;2023-04-30T11:13:03;17.80;66.30
1379;DHT22;683;48.738;9.226;2023-04-30T11:15:34;17.80;65.80
1379;DHT22;683;48.738;9.226;2023-04-30T11:18:07;17.90;65.80
1379;DHT22;683;48.738;9.226;2023-04-30T11:20:39;17.90;65.20
1379;DHT22;683;48.738;9.226;2023-04-30T11:23:11;17.90;65.20
1379;DHT22;683;48.738;9.226;2023-04-30T11:25:40;18.10;64.70
1379;DHT22;683;48.738;9.226;2023-04-30T11:28:11;18.20;66.40
1379;DHT22;683;48.738;9.226;2023-04-30T11:30:41;18.40;64.20
1379;DHT22;683;48.738;9.226;2023-04-30T11:33:10;18.60;63.50
1379;DHT22;683;48.738;9.226;2023-04-30T11:35:38;18.70;62.50
1379;DHT22;683;48.738;9.226;2023-04-30T11:38:07;18.60;61.70
1379;DHT22;683;48.738;9.226;2023-04-30T11:40:35;18.70;60.70
1379;DHT22;683;48.738;9.226;2023-04-30T11:43:03;18.80;60.30
1379;DHT22;683;48.738;9.226;2023-04-30T11:45:30;18.90;60.30
1379;DHT22;683;48.738;9.226;2023-04-30T11:47:58;19.00;60.80
1379;DHT22;683;48.738;9.226;2023-04-30T11:50:32;19.10;59.90
1379;DHT22;683;48.738;9.226;2023-04-30T11:53:00;19.30;59.60
1379;DHT22;683;48.738;9.226;2023-04-30T11:55:30;19.50;60.00
1379;DHT22;683;48.738;9.226;2023-04-30T11:57:57;19.50;59.80
1379;DHT22;683;48.738;9.226;2023-04-30T12:00:27;19.80;59.70
1379;DHT22;683;48.738;9.226;2023-04-30T12:02:56;20.00;59.20
1379;DHT22;683;48.738;9.226;2023-04-30T12:05:25;20.00;57.30
1379;DHT22;683;48.738;9.226;2023-04-30T12:07:55;19.90;58.80
1379;DHT22;683;48.738;9.226;2023-04-30T12:10:23;19.50;59.40
1379;DHT22;683;48.738;9.226;2023-04-30T12:12:51;19.20;59.90
1379;DHT22;683;48.738;9.226;2023-04-30T12:15:20;19.20;59.90
1379;DHT22;683;48.738;9.226;2023-04-30T12:17:52;19.40;59.30
1379;DHT22;683;48.738;9.226;2023-04-30T12:20:20;19.60;58.40
1379;DHT22;683;48.738;9.226;2023-04-30T12:22:50;19.80;58.50
1379;DHT22;683;48.738;9.226;2023-04-30T12:25:19;20.00;59.30
1379;DHT22;683;48.738;9.226;2023-04-30T12:27:48;20.20;57.70
1379;DHT22;683;48.738;9.226;2023-04-30T12:30:19;20.00;56.80
1379;DHT22;683;48.738;9.226;2023-04-30T12:32:48;20.00;56.90
1379;DHT22;683;48.738;9.226;2023-04-30T12:35:17;19.70;57.50
1379;DHT22;683;48.738;9.226;2023-04-30T12:37:47;19.50;57.40
1379;DHT22;683;48.738;9.226;2023-04-30T12:40:18;19.20;59.30
1379;DHT22;683;48.738;9.226;2023-04-30T12:42:46;18.90;59.80
1379;DHT22;683;48.738;9.226;2023-04-30T12:45:41;18.70;60.10
1379;DHT22;683;48.738;9.226;2023-04-30T12:48:09;18.70;61.00
1379;DHT22;683;48.738;9.226;2023-04-30T12:50:36;18.70;61.40
1379;DHT22;683;48.738;9.226;2023-04-30T12:53:04;18.70;62.00
1379;DHT22;683;48.738;9.226;2023-04-30T12:55:34;18.60;62.10
1379;DHT22;683;48.738;9.226;2023-04-30T12:58:07;18.60;61.10
1379;DHT22;683;48.738;9.226;2023-04-30T13:00:44;18.70;61.50
1379;DHT22;683;48.738;9.226;2023-04-30T13:03:13;18.80;60.70
1379;DHT22;683;48.738;9.226;2023-04-30T13:05:42;19.10;60.00
1379;DHT22;683;48.738;9.226;2023-04-30T13:08:12;19.90;60.00
1379;DHT22;683;48.738;9.226;2023-04-30T13:10:41;20.50;59.80
1379;DHT22;683;48.738;9.226;2023-04-30T13:13:09;21.00;58.50
1379;DHT22;683;48.738;9.226;2023-04-30T13:15:37;21.40;57.10
1379;DHT22;683;48.738;9.226;2023-04-30T13:18:05;21.40;57.30
1379;DHT22;683;48.738;9.226;2023-04-30T13:20:33;21.40;56.50
1379;DHT22;683;48.738;9.226;2023-04-30T13:23:01;21.30;55.80
1379;DHT22;683;48.738;9.226;2023-04-30T13:25:28;21.20;56.50
1379;DHT22;683;48.738;9.226;2023-04-30T13:27:58;21.00;56.60
1379;DHT22;683;48.738;9.226;2023-04-30T13:30:25;21.10;57.30
1379;DHT22;683;48.738;9.226;2023-04-30T13:32:53;21.20;57.30
1379;DHT22;683;48.738;9.226;2023-04-30T13:35:21;21.60;54.80
1379;DHT22;683;48.738;9.226;2023-04-30T13:37:48;21.60;53.30
1379;DHT22;683;48.738;9.226;2023-04-30T13:40:17;21.30;55.40
1379;DHT22;683;48.738;9.226;2023-04-30T13:42:46;21.10;54.30
1379;DHT22;683;48.738;9.226;2023-04-30T13:45:15;21.00;54.10
1379;DHT22;683;48.738;9.226;2023-04-30T13:47:43;21.10;55.50
1379;DHT22;683;48.738;9.226;2023-04-30T13:50:10;21.20;55.20
1379;DHT22;683;48.738;9.226;2023-04-30T13:52:38;21.70;55.20
1379;DHT22;683;48.738;9.226;2023-04-30T13:55:06;21.90;55.10
1379;DHT22;683;48.738;9.226;2023-04-30T13:57:34;21.90;53.90
1379;DHT22;683;48.738;9.226;2023-04-30T14:00:03;21.60;54.10
1379;DHT22;683;48.738;9.226;2023-04-30T14:02:35;21.10;54.40
1379;DHT22;683;48.738;9.226;2023-04-30T14:05:03;20.60;55.80
1379;DHT22;683;48.738;9.226;2023-04-30T14:07:30;20.20;57.00
1379;DHT22;683;48.738;9.226;2023-04-30T14:09:58;19.90;57.20
1379;DHT22;683;48.738;9.226;2023-04-30T14:12:26;19.90;56.70
1379;DHT22;683;48.738;9.226;2023-04-30T14:14:55;20.20;57.40
1379;DHT22;683;48.738;9.226;2023-04-30T14:17:23;20.60;57.10
1379;DHT22;683;48.738;9.226;2023-04-30T14:19:53;20.80;55.90
1379;DHT22;683;48.738;9.226;2023-04-30T14:22:20;20.80;54.50
1379;DHT22;683;48.738;9.226;2023-04-30T14:24:50;20.60;55.50
1379;DHT22;683;48.738;9.226;2023-04-30T14:27:17;20.40;55.30
1379;DHT22;683;48.738;9.226;2023-04-30T14:29:44;20.30;55.70
1379;DHT22;683;48.738;9.226;2023-04-30T14:32:12;20.30;56.20
1379;DHT22;683;48.738;9.226;2023-04-30T14:34:40;20.10;56.60
1379;DHT22;683;48.738;9.226;2023-04-30T14:37:09;20.00;56.00
1379;DHT22;683;48.738;9.226;2023-04-30T14:39:36;19.80;55.90
1379;DHT22;683;48.738;9.226;2023-04-30T14:42:04;19.70;56.20
1379;DHT22;683;48.738;9.226;2023-04-30T14:44:31;19.60;57.40
1379;DHT22;683;48.738;9.226;2023-04-30T14:46:59;19.80;56.90
1379;DHT22;683;48.738;9.226;2023-04-30T14:49:27;20.40;56.40
1379;DHT22;683;48.738;9.226;2023-04-30T14:51:54;20.90;55.50
1379;DHT22;683;48.738;9.226;2023-04-30T14:54:23;21.40;54.90
1379;DHT22;683;48.738;9.226;2023-04-30T14:56:51;21.90;54.30
1379;DHT22;683;48.738;9.226;2023-04-30T14:59:18;22.10;53.70
1379;DHT22;683;48.738;9.226;2023-04-30T15:01:46;22.40;52.30
1379;DHT22;683;48.738;9.226;2023-04-30T15:04:13;22.70;51.70
1379;DHT22;683;48.738;9.226;2023-04-30T15:06:41;23.00;52.40
1379;DHT22;683;48.738;9.226;2023-04-30T15:09:09;23.00;52.10
1379;DHT22;683;48.738;9.226;2023-04-30T15:11:38;23.00;52.00
1379;DHT22;683;48.738;9.226;2023-04-30T15:14:06;23.00;52.20
1379;DHT22;683;48.738;9.226;2023-04-30T15:16:33;23.00;51.20
1379;DHT22;683;48.738;9.226;2023-04-30T15:19:01;23.20;51.20
1379;DHT22;683;48.738;9.226;2023-04-30T15:21:29;23.80;49.00
1379;DHT22;683;48.738;9.226;2023-04-30T15:23:56;24.10;49.60
1379;DHT22;683;48.738;9.226;2023-04-30T15:26:24;24.00;49.80
1379;DHT22;683;48.738;9.226;2023-04-30T15:28:54;23.70;49.60
1379;DHT22;683;48.738;9.226;2023-04-30T15:31:21;23.80;48.90
1379;DHT22;683;48.738;9.226;2023-04-30T15:33:49;24.00;49.70
1379;DHT22;683;48.738;9.226;2023-04-30T15:36:16;24.70;48.70
1379;DHT22;683;48.738;9.226;2023-04-30T15:38:44;25.40;47.40
1379;DHT22;683;48.738;9.226;2023-04-30T15:41:11;25.70;46.50
1379;DHT22;683;48.738;9.226;2023-04-30T15:43:39;25.80;46.10
1379;DHT22;683;48.738;9.226;2023-04-30T15:46:07;25.60;46.00
1379;DHT22;683;48.738;9.226;2023-04-30T15:48:35;25.50;45.80
1379;DHT22;683;48.738;9.226;2023-04-30T15:51:02;25.40;45.90
1379;DHT22;683;48.738;9.226;2023-04-30T15:53:30;25.10;46.60
1379;DHT22;683;48.738;9.226;2023-04-30T15:55:58;24.90;46.60
1379;DHT22;683;48.738;9.226;2023-04-30T15:58:25;24.40;47.30
1379;DHT22;683;48.738;9.226;2023-04-30T16:00:52;23.90;47.50
1379;DHT22;683;48.738;9.226;2023-04-30T16:03:21;23.20;48.90
1379;DHT22;683;48.738;9.226;2023-04-30T16:05:49;22.60;49.20
1379;DHT22;683;48.738;9.226;2023-04-30T16:08:16;22.00;50.30
1379;DHT22;683;48.738;9.226;2023-04-30T16:10:44;21.70;50.70
1379;DHT22;683;48.738;9.226;2023-04-30T16:13:12;21.40;50.40
1379;DHT22;683;48.738;9.226;2023-04-30T16:15:39;21.20;52.00
1379;DHT22;683;48.738;9.226;2023-04-30T16:18:07;21.10;52.00
1379;DHT22;683;48.738;9.226;2023-04-30T16:20:36;20.80;52.90
1379;DHT22;683;48.738;9.226;2023-04-30T16:23:05;20.80;53.20
1379;DHT22;683;48.738;9.226;2023-04-30T16:25:33;20.70;52.80
1379;DHT22;683;48.738;9.226;2023-04-30T16:28:01;20.60;53.20
1379;DHT22;683;48.738;9.226;2023-04-30T16:30:28;20.50;53.20
1379;DHT22;683;48.738;9.226;2023-04-30T16:32:56;20.40;53.20